Verhneimbatsk, Russia
Current Conditions -  °F | °C
As of 3:30 PM on Monday 24 Nov 2014 (Local Time) from USNN Reporting Station
Light Snow Light Snow  
Wind Chill: -30°   Ceiling: 3500
Heat Index: -9°   Visibility: 2.6mi
Dew Point: -15°   Wind: 13mph
Humidity: 77%   Direction: 220°SW
Pressure: 29.71"   Gusts: 20mph
Location:  63.15°N, 87.95°E
Report Text: USNN 240830Z 22006G09MPS 4200 -SN OVC035 M23/M26 Q1006 TEMPO2000 SN RMK QFE750 21452549
Loading
Personal Weather Stations






























Interactive Weather Map New forecast layout! Learn more

10-Day Weather Forecast

Advertisements
Track Severe Weather on mobile